createdAt,value
2023-05-14T00:30:46.195Z,17.32
2023-05-14T00:33:12.503Z,17.30
2023-05-14T00:35:38.888Z,17.26
2023-05-14T00:38:05.217Z,17.23
2023-05-14T00:40:31.613Z,17.21
2023-05-14T00:42:57.923Z,17.18
2023-05-14T00:45:24.297Z,17.16
2023-05-14T00:47:51.099Z,17.14
2023-05-14T00:50:17.849Z,17.16
2023-05-14T00:52:44.659Z,17.16
2023-05-14T00:55:16.237Z,17.15
2023-05-14T00:57:43.332Z,17.14
2023-05-14T01:00:10.123Z,17.15
2023-05-14T01:02:36.628Z,17.16
2023-05-14T01:05:03.611Z,17.16
2023-05-14T01:07:46.198Z,17.15
2023-05-14T01:10:25.145Z,17.16
2023-05-14T01:13:15.777Z,17.16
2023-05-14T01:15:44.090Z,17.22
2023-05-14T01:18:13.797Z,17.22
2023-05-14T01:20:40.161Z,17.25
2023-05-14T01:23:06.491Z,17.24
2023-05-14T01:25:33.646Z,17.25
2023-05-14T01:28:09.470Z,17.24
2023-05-14T01:30:48.624Z,17.29
2023-05-14T01:33:18.170Z,17.29
2023-05-14T01:35:45.561Z,17.28
2023-05-14T01:38:14.870Z,17.28
2023-05-14T01:40:41.980Z,17.27
2023-05-14T01:43:08.604Z,17.24
2023-05-14T01:45:36.138Z,17.23
2023-05-14T01:48:02.670Z,17.21
2023-05-14T01:50:29.182Z,17.19
2023-05-14T01:52:56.395Z,17.16
2023-05-14T01:55:24.399Z,17.13
2023-05-14T01:57:53.383Z,17.08
2023-05-14T02:00:20.839Z,17.04
2023-05-14T02:02:47.316Z,16.99
2023-05-14T02:05:13.843Z,16.95
2023-05-14T02:07:40.435Z,16.90
2023-05-14T02:10:07.634Z,16.86
2023-05-14T02:12:33.965Z,16.82
2023-05-14T02:15:00.302Z,16.77
2023-05-14T02:17:26.735Z,16.72
2023-05-14T02:19:53.084Z,16.66
2023-05-14T02:22:19.392Z,16.62
2023-05-14T02:24:45.718Z,16.57
2023-05-14T02:27:13.151Z,16.51
2023-05-14T02:29:39.454Z,16.46
2023-05-14T02:32:06.010Z,16.42
2023-05-14T02:34:34.297Z,16.38
2023-05-14T02:37:00.995Z,16.33
2023-05-14T02:39:27.308Z,16.24
2023-05-14T02:41:53.609Z,16.18
2023-05-14T02:44:19.912Z,16.08
2023-05-14T02:46:46.561Z,15.99
2023-05-14T02:49:12.862Z,15.91
2023-05-14T02:51:39.812Z,15.82
2023-05-14T02:54:06.253Z,15.76
2023-05-14T02:56:32.575Z,15.70
2023-05-14T02:58:58.922Z,15.66
2023-05-14T03:01:25.687Z,15.63
2023-05-14T03:03:52.525Z,15.62
2023-05-14T03:06:18.870Z,15.59
2023-05-14T03:08:45.630Z,15.59
2023-05-14T03:11:11.964Z,15.59
2023-05-14T03:13:38.265Z,15.60
2023-05-14T03:16:04.809Z,15.60
2023-05-14T03:18:33.217Z,15.59
2023-05-14T03:20:59.539Z,15.59
2023-05-14T03:23:25.975Z,15.57
2023-05-14T03:25:52.525Z,15.57
2023-05-14T03:28:18.895Z,15.57
2023-05-14T03:30:45.309Z,15.58
2023-05-14T03:33:12.236Z,15.59
2023-05-14T03:35:38.521Z,15.60
2023-05-14T03:38:04.873Z,15.62
2023-05-14T03:40:31.223Z,15.63
2023-05-14T03:42:57.557Z,15.66
2023-05-14T03:45:24.295Z,15.68
2023-05-14T03:47:50.709Z,15.71
2023-05-14T03:50:17.066Z,15.74
2023-05-14T03:52:44.122Z,15.79
2023-05-14T03:55:10.584Z,15.80
2023-05-14T03:57:37.013Z,15.83
2023-05-14T04:00:07.359Z,15.84
2023-05-14T04:02:33.730Z,15.87
2023-05-14T04:05:00.242Z,15.88
2023-05-14T04:07:26.565Z,15.88
2023-05-14T04:09:52.876Z,15.90
2023-05-14T04:12:19.214Z,15.89
2023-05-14T04:14:45.570Z,15.88
2023-05-14T04:17:11.918Z,15.87
2023-05-14T04:19:39.208Z,15.84
2023-05-14T04:22:05.610Z,15.83
2023-05-14T04:24:31.954Z,15.83
2023-05-14T04:26:58.285Z,15.82
2023-05-14T04:29:24.625Z,15.84
2023-05-14T04:31:51.024Z,15.85
2023-05-14T04:34:17.459Z,15.86
2023-05-14T04:36:43.841Z,15.86
2023-05-14T04:39:12.234Z,15.87
2023-05-14T04:41:38.871Z,15.87
2023-05-14T04:44:05.398Z,15.89
2023-05-14T04:46:31.792Z,15.90
2023-05-14T04:48:58.218Z,15.90
2023-05-14T04:51:24.586Z,15.91
2023-05-14T04:53:50.902Z,15.93
2023-05-14T04:56:17.537Z,15.92
2023-05-14T04:58:43.855Z,15.94
2023-05-14T05:01:10.468Z,15.94
2023-05-14T05:03:36.936Z,15.96
2023-05-14T05:06:03.476Z,15.97
2023-05-14T05:08:30.697Z,15.99
2023-05-14T05:10:57.038Z,16.00
2023-05-14T05:13:23.372Z,16.02
2023-05-14T05:15:49.716Z,16.05
2023-05-14T05:18:16.058Z,16.07
2023-05-14T05:20:42.476Z,16.11
2023-05-14T05:23:08.776Z,16.17
2023-05-14T05:25:35.154Z,16.21
2023-05-14T05:28:01.589Z,16.26
2023-05-14T05:30:28.046Z,16.33
2023-05-14T05:32:54.375Z,16.39
2023-05-14T05:35:20.759Z,16.49
2023-05-14T05:37:47.150Z,16.54
2023-05-14T05:40:14.331Z,16.62
2023-05-14T05:42:41.275Z,16.69
2023-05-14T05:45:07.984Z,16.74
2023-05-14T05:47:34.440Z,16.79
2023-05-14T05:50:02.874Z,16.84
2023-05-14T05:52:29.498Z,16.86
2023-05-14T05:54:55.869Z,16.91
2023-05-14T05:57:25.112Z,16.95
2023-05-14T05:59:53.068Z,16.99
2023-05-14T06:02:19.740Z,17.03
2023-05-14T06:04:46.049Z,17.08
2023-05-14T06:07:12.865Z,17.13
2023-05-14T06:09:39.171Z,17.17
2023-05-14T06:12:06.026Z,17.22
2023-05-14T06:14:32.311Z,17.26
2023-05-14T06:16:58.814Z,17.34
2023-05-14T06:19:25.176Z,17.40
2023-05-14T06:21:51.469Z,17.48
2023-05-14T06:24:19.894Z,17.55
2023-05-14T06:26:46.226Z,17.63
2023-05-14T06:29:12.578Z,17.70
2023-05-14T06:31:39.125Z,17.78
2023-05-14T06:34:05.667Z,17.87
2023-05-14T06:36:34.551Z,17.95
2023-05-14T06:39:01.013Z,18.03
2023-05-14T06:41:27.574Z,18.12
2023-05-14T06:43:54.183Z,18.21
2023-05-14T06:46:21.218Z,18.28
2023-05-14T06:48:47.803Z,18.36
2023-05-14T06:51:14.419Z,18.44
2023-05-14T06:53:41.250Z,18.53
2023-05-14T06:56:07.988Z,18.60
2023-05-14T06:58:34.544Z,18.69
2023-05-14T07:01:01.134Z,18.77
2023-05-14T07:03:29.149Z,18.85
2023-05-14T07:05:55.764Z,18.94
2023-05-14T07:08:22.434Z,19.01
2023-05-14T07:10:49.153Z,19.10
2023-05-14T07:13:15.703Z,19.18
2023-05-14T07:15:42.284Z,19.23
2023-05-14T07:18:08.882Z,19.29
2023-05-14T07:20:35.569Z,19.35
2023-05-14T07:23:05.133Z,19.39
2023-05-14T07:25:32.705Z,19.45
2023-05-14T07:27:59.397Z,19.50
2023-05-14T07:30:26.296Z,19.56
2023-05-14T07:32:53.078Z,19.58
2023-05-14T07:35:19.774Z,19.63
2023-05-14T07:37:46.402Z,19.67
2023-05-14T07:40:19.108Z,19.73
2023-05-14T07:42:46.046Z,19.77
2023-05-14T07:45:12.614Z,19.83
2023-05-14T07:47:39.493Z,19.88
2023-05-14T07:50:06.621Z,19.94
2023-05-14T07:52:33.194Z,20.00
2023-05-14T07:55:01.311Z,20.04
2023-05-14T07:57:27.914Z,20.09
2023-05-14T07:59:54.449Z,20.13
2023-05-14T08:02:21.101Z,20.17
2023-05-14T08:04:47.893Z,20.21
2023-05-14T08:07:14.406Z,20.26
2023-05-14T08:09:40.982Z,20.30
2023-05-14T08:12:08.450Z,20.35
2023-05-14T08:14:35.160Z,20.41
2023-05-14T08:17:01.836Z,20.48
2023-05-14T08:19:28.531Z,20.54
2023-05-14T08:21:55.009Z,20.63
2023-05-14T08:24:21.839Z,20.72
2023-05-14T08:26:48.411Z,20.81
2023-05-14T08:29:16.609Z,20.88
2023-05-14T08:31:43.619Z,20.96
2023-05-14T08:34:10.344Z,21.04
2023-05-14T08:36:37.951Z,21.11
2023-05-14T08:39:04.565Z,21.16
2023-05-14T08:41:32.042Z,21.24
2023-05-14T08:44:27.958Z,21.29
2023-05-14T08:46:54.905Z,21.39
2023-05-14T08:49:41.015Z,21.41
2023-05-14T08:52:09.343Z,21.51
2023-05-14T08:54:36.185Z,21.57
2023-05-14T08:57:08.491Z,21.61
2023-05-14T08:59:35.269Z,21.69
2023-05-14T09:02:03.080Z,21.73
2023-05-14T09:04:31.480Z,21.82
2023-05-14T09:07:01.417Z,21.86
2023-05-14T09:09:28.310Z,21.91
2023-05-14T09:11:54.945Z,21.96
2023-05-14T09:14:23.271Z,21.99
2023-05-14T09:16:51.468Z,22.05
2023-05-14T09:19:21.864Z,22.12
2023-05-14T09:21:49.552Z,22.20
2023-05-14T09:24:21.891Z,22.27
2023-05-14T09:26:53.646Z,22.36
2023-05-14T09:29:20.868Z,22.44
2023-05-14T09:31:50.422Z,22.51
2023-05-14T09:34:38.113Z,22.56
2023-05-14T09:37:06.962Z,22.69
2023-05-14T09:39:36.391Z,22.75
2023-05-14T09:42:03.513Z,22.84
2023-05-14T09:44:30.318Z,22.91
2023-05-14T09:46:56.974Z,22.99
2023-05-14T09:49:23.533Z,23.08
2023-05-14T09:51:50.482Z,23.17
2023-05-14T09:54:17.541Z,23.27
2023-05-14T09:56:44.934Z,23.36
2023-05-14T09:59:11.670Z,23.45
2023-05-14T10:01:39.513Z,23.52
2023-05-14T10:04:08.275Z,23.58
2023-05-14T10:06:37.961Z,23.64
2023-05-14T10:09:08.543Z,23.73
2023-05-14T10:11:38.426Z,23.81
2023-05-14T10:14:12.417Z,23.90
2023-05-14T10:16:46.905Z,23.98
2023-05-14T10:19:16.663Z,24.07
2023-05-14T10:21:47.813Z,24.14
2023-05-14T10:24:14.902Z,24.20
2023-05-14T10:26:42.107Z,24.27
2023-05-14T10:29:12.633Z,24.31
2023-05-14T10:31:55.924Z,24.34
2023-05-14T10:34:42.514Z,24.42
2023-05-14T10:37:14.877Z,24.53
2023-05-14T10:39:48.003Z,24.64
2023-05-14T10:42:19.823Z,24.75
2023-05-14T10:44:51.805Z,24.94
2023-05-14T10:47:18.940Z,25.22
2023-05-14T10:49:49.129Z,25.54
2023-05-14T10:52:20.210Z,25.95
2023-05-14T10:55:00.056Z,26.39
2023-05-14T10:57:30.682Z,26.90
2023-05-14T10:59:59.465Z,27.35
2023-05-14T11:02:34.764Z,27.78
2023-05-14T11:05:04.417Z,28.20
2023-05-14T11:07:40.085Z,28.63
2023-05-14T11:10:12.263Z,29.03
2023-05-14T11:12:41.031Z,29.40
2023-05-14T11:15:09.732Z,29.78
2023-05-14T11:17:37.809Z,30.12
2023-05-14T11:20:08.111Z,30.42
2023-05-14T11:22:35.625Z,30.69
2023-05-14T11:25:02.296Z,30.95
2023-05-14T11:27:29.671Z,31.21
2023-05-14T11:29:56.521Z,31.45
2023-05-14T11:32:23.163Z,31.66
2023-05-14T11:34:49.857Z,31.85
2023-05-14T11:37:17.062Z,31.99
2023-05-14T11:39:49.001Z,32.04
2023-05-14T11:42:17.457Z,32.08
2023-05-14T11:44:44.593Z,32.03
2023-05-14T11:47:11.334Z,31.96
2023-05-14T11:49:38.177Z,31.92
2023-05-14T11:52:07.451Z,31.89
2023-05-14T11:54:34.909Z,31.85
2023-05-14T11:57:11.040Z,31.78
2023-05-14T11:59:38.437Z,31.79
2023-05-14T12:02:06.189Z,31.80
2023-05-14T12:04:32.891Z,31.84
2023-05-14T12:07:00.752Z,31.92
2023-05-14T12:09:27.397Z,32.03
2023-05-14T12:11:54.077Z,32.12
2023-05-14T12:14:22.859Z,32.18
2023-05-14T12:16:50.951Z,32.22
2023-05-14T12:19:19.842Z,32.24
2023-05-14T12:21:48.442Z,32.28
2023-05-14T12:24:17.891Z,32.35
2023-05-14T12:26:45.707Z,32.46
2023-05-14T12:29:14.119Z,32.58
2023-05-14T12:34:19.277Z,32.85
2023-05-14T12:36:45.826Z,32.80
2023-05-14T12:39:12.460Z,32.66
2023-05-14T12:41:39.027Z,32.54
2023-05-14T12:44:05.886Z,32.49
2023-05-14T12:46:34.372Z,32.45
2023-05-14T12:49:01.121Z,32.33
2023-05-14T12:51:29.838Z,32.08
2023-05-14T12:53:56.299Z,31.73
2023-05-14T12:56:27.740Z,31.30
2023-05-14T12:58:56.426Z,30.81
2023-05-14T13:01:23.779Z,30.40
2023-05-14T13:03:50.884Z,30.17
2023-05-14T13:06:17.473Z,30.14
2023-05-14T13:08:43.991Z,30.27
2023-05-14T13:11:10.619Z,30.55
2023-05-14T13:13:37.081Z,30.96
2023-05-14T13:16:04.136Z,31.43
2023-05-14T13:18:30.702Z,31.94
2023-05-14T13:20:57.277Z,32.45
2023-05-14T13:23:24.347Z,32.95
2023-05-14T13:25:51.060Z,33.38
2023-05-14T13:28:17.635Z,33.80
2023-05-14T13:31:03.772Z,34.16
2023-05-14T13:33:30.646Z,34.54
2023-05-14T13:35:57.218Z,34.81
2023-05-14T13:38:23.718Z,35.05
2023-05-14T13:40:50.322Z,35.32
2023-05-14T13:43:17.008Z,35.55
2023-05-14T13:45:43.544Z,35.78
2023-05-14T13:48:10.142Z,36.00
2023-05-14T13:50:36.665Z,36.27
2023-05-14T13:53:03.136Z,36.49
2023-05-14T13:55:29.649Z,36.69
2023-05-14T13:57:56.291Z,36.87
2023-05-14T14:00:22.940Z,36.99
2023-05-14T14:02:49.601Z,37.10
2023-05-14T14:05:16.193Z,37.22
2023-05-14T14:07:42.832Z,37.35
2023-05-14T14:10:09.922Z,37.49
2023-05-14T14:12:36.825Z,37.62
2023-05-14T14:15:04.106Z,37.72
2023-05-14T14:17:30.633Z,37.77
2023-05-14T14:19:57.163Z,37.75
2023-05-14T14:22:27.165Z,37.70
2023-05-14T14:24:55.591Z,37.65
2023-05-14T14:27:22.445Z,37.61
2023-05-14T14:29:49.040Z,37.55
2023-05-14T14:32:15.800Z,37.47
2023-05-14T14:34:42.370Z,37.33
2023-05-14T14:37:08.971Z,37.14
2023-05-14T14:39:35.643Z,36.92
2023-05-14T14:42:02.302Z,36.67
2023-05-14T14:44:28.859Z,36.42
2023-05-14T14:46:55.528Z,36.12
2023-05-14T14:49:23.396Z,35.80
2023-05-14T14:51:49.878Z,35.45
2023-05-14T14:54:16.419Z,35.03
2023-05-14T14:56:43.419Z,34.64
2023-05-14T14:59:09.986Z,34.27
2023-05-14T15:01:36.630Z,33.93
2023-05-14T15:04:03.304Z,33.66
2023-05-14T15:06:29.828Z,33.48
2023-05-14T15:08:56.316Z,33.32
2023-05-14T15:11:22.944Z,33.22
2023-05-14T15:13:49.441Z,33.13
2023-05-14T15:16:16.059Z,33.06
2023-05-14T15:18:42.627Z,32.97
2023-05-14T15:21:09.234Z,32.87
2023-05-14T15:23:35.865Z,32.73
2023-05-14T15:26:02.441Z,32.58
2023-05-14T15:28:29.011Z,32.44
2023-05-14T15:30:55.644Z,32.32
2023-05-14T15:33:22.190Z,32.21
2023-05-14T15:35:48.661Z,32.08
2023-05-14T15:38:17.838Z,31.93
2023-05-14T15:40:44.351Z,31.69
2023-05-14T15:43:11.124Z,31.45
2023-05-14T15:45:37.563Z,31.25
2023-05-14T15:48:04.304Z,31.09
2023-05-14T15:50:30.904Z,30.98
2023-05-14T15:52:57.487Z,30.90
2023-05-14T15:55:24.033Z,30.81
2023-05-14T15:57:50.724Z,30.71
2023-05-14T16:00:17.528Z,30.62
2023-05-14T16:02:44.105Z,30.54
2023-05-14T16:05:10.773Z,30.45
2023-05-14T16:07:37.494Z,30.35
2023-05-14T16:10:04.825Z,30.22
2023-05-14T16:12:31.386Z,30.09
2023-05-14T16:14:58.121Z,29.94
2023-05-14T16:17:24.693Z,29.77
2023-05-14T16:19:52.832Z,29.59
2023-05-14T16:22:20.682Z,29.41
2023-05-14T16:24:47.237Z,29.25
2023-05-14T16:27:13.826Z,29.10
2023-05-14T16:29:40.436Z,28.95
2023-05-14T16:32:07.337Z,28.82
2023-05-14T16:34:33.881Z,28.67
2023-05-14T16:37:00.462Z,28.55
2023-05-14T16:39:27.117Z,28.44
2023-05-14T16:41:53.656Z,28.34
2023-05-14T16:44:20.152Z,28.26
2023-05-14T16:46:46.731Z,28.18
2023-05-14T16:49:14.086Z,28.09
2023-05-14T16:51:43.137Z,28.02
2023-05-14T16:54:09.975Z,27.92
2023-05-14T16:56:36.788Z,27.80
2023-05-14T16:59:03.375Z,27.64
2023-05-14T17:01:30.613Z,27.49
2023-05-14T17:03:57.310Z,27.34
2023-05-14T17:06:23.903Z,27.19
2023-05-14T17:08:50.711Z,27.06
2023-05-14T17:11:17.236Z,26.93
2023-05-14T17:13:43.788Z,26.80
2023-05-14T17:16:10.724Z,26.66
2023-05-14T17:18:37.955Z,26.54
2023-05-14T17:21:05.871Z,26.44
2023-05-14T17:23:32.474Z,26.32
2023-05-14T17:25:59.203Z,26.21
2023-05-14T17:28:27.029Z,26.08
2023-05-14T17:30:53.625Z,25.98
2023-05-14T17:33:20.250Z,25.86
2023-05-14T17:35:46.875Z,25.78
2023-05-14T17:38:13.584Z,25.68
2023-05-14T17:40:40.915Z,25.60
2023-05-14T17:43:08.574Z,25.54
2023-05-14T17:45:46.186Z,25.48
2023-05-14T17:48:19.511Z,25.42
2023-05-14T17:50:46.227Z,25.35
2023-05-14T17:53:12.867Z,25.30
2023-05-14T17:55:43.476Z,25.21
2023-05-14T17:58:15.538Z,25.11
2023-05-14T18:00:42.348Z,25.03
2023-05-14T18:03:09.084Z,24.93
2023-05-14T18:05:36.285Z,24.83
2023-05-14T18:08:03.325Z,24.75
2023-05-14T18:10:29.966Z,24.67
2023-05-14T18:12:56.843Z,24.60
2023-05-14T18:15:25.514Z,24.54
2023-05-14T18:17:52.748Z,24.48
2023-05-14T18:20:19.663Z,24.41
2023-05-14T18:22:46.184Z,24.33
2023-05-14T18:25:13.621Z,24.27
2023-05-14T18:27:44.508Z,24.19
2023-05-14T18:30:15.670Z,24.08
2023-05-14T18:32:44.547Z,24.00
2023-05-14T18:35:12.340Z,23.89
2023-05-14T18:37:39.035Z,23.77
2023-05-14T18:40:07.004Z,23.64
2023-05-14T18:42:34.036Z,23.52
2023-05-14T18:45:00.624Z,23.37
2023-05-14T18:47:27.099Z,23.20
2023-05-14T18:49:55.653Z,23.03
2023-05-14T18:52:22.803Z,22.88
2023-05-14T18:54:50.749Z,22.71
2023-05-14T18:57:17.128Z,22.58
2023-05-14T18:59:43.576Z,22.45
2023-05-14T19:02:10.113Z,22.33
2023-05-14T19:04:50.555Z,22.21
2023-05-14T19:07:18.777Z,22.10
2023-05-14T19:09:45.240Z,21.98
2023-05-14T19:12:11.626Z,21.89
2023-05-14T19:14:38.071Z,21.81
2023-05-14T19:17:05.366Z,21.74
2023-05-14T19:19:31.816Z,21.69
2023-05-14T19:21:58.193Z,21.66
2023-05-14T19:24:24.773Z,21.64
2023-05-14T19:26:51.229Z,21.63
2023-05-14T19:29:17.627Z,21.60
2023-05-14T19:31:44.053Z,21.57
2023-05-14T19:34:10.767Z,21.56
2023-05-14T19:36:37.174Z,21.54
2023-05-14T19:39:03.780Z,21.51
2023-05-14T19:41:30.210Z,21.48
2023-05-14T19:43:56.660Z,21.44
2023-05-14T19:46:23.080Z,21.43
2023-05-14T19:48:49.612Z,21.40
2023-05-14T19:51:15.997Z,21.39
2023-05-14T19:53:42.557Z,21.35
2023-05-14T19:56:09.267Z,21.34
2023-05-14T19:58:35.776Z,21.30
2023-05-14T20:01:02.183Z,21.27
2023-05-14T20:03:29.624Z,21.24
2023-05-14T20:05:56.189Z,21.20
2023-05-14T20:08:22.600Z,21.18
2023-05-14T20:10:49.017Z,21.14
2023-05-14T20:13:15.562Z,21.11
2023-05-14T20:15:42.531Z,21.06
2023-05-14T20:18:09.201Z,21.03
2023-05-14T20:20:35.778Z,20.99
2023-05-14T20:23:03.534Z,20.95
2023-05-14T20:25:30.150Z,20.91
2023-05-14T20:27:56.853Z,20.87
2023-05-14T20:30:23.348Z,20.83
2023-05-14T20:32:50.067Z,20.80
2023-05-14T20:35:16.741Z,20.77
2023-05-14T20:37:43.809Z,20.71
2023-05-14T20:40:12.544Z,20.70
2023-05-14T20:42:39.167Z,20.67
2023-05-14T20:45:06.597Z,20.65
2023-05-14T20:47:34.150Z,20.61
2023-05-14T20:50:00.726Z,20.57
2023-05-14T20:52:27.555Z,20.53
2023-05-14T20:54:54.098Z,20.49
2023-05-14T20:57:20.579Z,20.46
2023-05-14T20:59:47.442Z,20.43
2023-05-14T21:02:14.036Z,20.38
2023-05-14T21:04:40.996Z,20.36
2023-05-14T21:07:07.500Z,20.34
2023-05-14T21:09:34.083Z,20.33
2023-05-14T21:12:00.566Z,20.31
2023-05-14T21:14:27.092Z,20.29
2023-05-14T21:16:53.633Z,20.28
2023-05-14T21:19:20.386Z,20.27
2023-05-14T21:21:47.309Z,20.25
2023-05-14T21:24:13.855Z,20.25
2023-05-14T21:26:41.303Z,20.24
2023-05-14T21:29:07.805Z,20.22
2023-05-14T21:31:34.255Z,20.21
2023-05-14T21:34:00.799Z,20.18
2023-05-14T21:36:27.198Z,20.16
2023-05-14T21:38:53.841Z,20.13
2023-05-14T21:41:21.011Z,20.08
2023-05-14T21:43:48.523Z,20.05
2023-05-14T21:46:15.023Z,20.03
2023-05-14T21:48:41.758Z,20.00
2023-05-14T21:51:08.308Z,19.98
2023-05-14T21:53:34.807Z,19.95
2023-05-14T21:56:01.203Z,19.91
2023-05-14T21:58:27.863Z,19.87
2023-05-14T22:00:54.292Z,19.82
2023-05-14T22:03:20.811Z,19.80
2023-05-14T22:05:49.114Z,19.75
2023-05-14T22:08:17.448Z,19.72
2023-05-14T22:10:44.141Z,19.69
2023-05-14T22:13:10.949Z,19.64
2023-05-14T22:15:37.870Z,19.59
2023-05-14T22:18:04.645Z,19.54
2023-05-14T22:20:31.137Z,19.50
2023-05-14T22:22:57.631Z,19.48
2023-05-14T22:25:24.291Z,19.46
2023-05-14T22:27:50.969Z,19.42
2023-05-14T22:30:17.378Z,19.39
2023-05-14T22:32:43.905Z,19.38
2023-05-14T22:35:11.139Z,19.35
2023-05-14T22:37:37.628Z,19.32
2023-05-14T22:40:05.174Z,19.30
2023-05-14T22:42:31.583Z,19.29
2023-05-14T22:44:57.960Z,19.29
2023-05-14T22:47:25.146Z,19.29
2023-05-14T22:49:52.394Z,19.28
2023-05-14T22:52:18.923Z,19.29
2023-05-14T22:54:46.517Z,19.28
2023-05-14T22:57:12.923Z,19.28
2023-05-14T22:59:39.496Z,19.27
2023-05-14T23:02:06.770Z,19.27
2023-05-14T23:04:33.430Z,19.28
2023-05-14T23:06:59.926Z,19.27
2023-05-14T23:09:26.436Z,19.25
2023-05-14T23:11:52.859Z,19.24
2023-05-14T23:14:19.588Z,19.21
2023-05-14T23:16:46.056Z,19.16
2023-05-14T23:19:12.790Z,19.13
2023-05-14T23:21:39.405Z,19.10
2023-05-14T23:24:06.137Z,19.02
2023-05-14T23:26:32.728Z,18.97
2023-05-14T23:28:59.334Z,18.91
2023-05-14T23:31:25.827Z,18.84
2023-05-14T23:33:52.239Z,18.77
2023-05-14T23:36:18.811Z,18.71
2023-05-14T23:38:45.753Z,18.67
2023-05-14T23:41:12.198Z,18.62
2023-05-14T23:43:38.556Z,18.56
2023-05-14T23:46:05.232Z,18.51
2023-05-14T23:48:31.726Z,18.46
2023-05-14T23:50:58.178Z,18.41
2023-05-14T23:53:24.810Z,18.38
2023-05-14T23:55:51.412Z,18.34
2023-05-14T23:58:17.897Z,18.30
